sensor_id;sensor_type;location;lat;lon;timestamp;pressure;altitude;pressure_sealevel;temperature;humidity
6453;BME280;3259;51.080;13.712;2023-05-08T00:00:17;101200.00;;;25.27;36.65
6453;BME280;3259;51.080;13.712;2023-05-08T00:03:06;101206.72;;;25.23;36.33
6453;BME280;3259;51.080;13.712;2023-05-08T00:05:57;101209.19;;;25.24;36.62
6453;BME280;3259;51.080;13.712;2023-05-08T00:08:45;101205.06;;;25.22;36.22
6453;BME280;3259;51.080;13.712;2023-05-08T00:11:34;101200.88;;;25.19;36.39
6453;BME280;3259;51.080;13.712;2023-05-08T00:14:22;101210.69;;;25.19;36.48
6453;BME280;3259;51.080;13.712;2023-05-08T00:17:11;101207.72;;;25.22;36.48
6453;BME280;3259;51.080;13.712;2023-05-08T00:20:01;101206.22;;;25.19;36.21
6453;BME280;3259;51.080;13.712;2023-05-08T00:22:51;101196.03;;;25.23;36.54
6453;BME280;3259;51.080;13.712;2023-05-08T00:25:40;101200.03;;;25.19;36.27
6453;BME280;3259;51.080;13.712;2023-05-08T00:28:28;101200.03;;;25.19;36.21
6453;BME280;3259;51.080;13.712;2023-05-08T00:31:17;101193.38;;;25.23;35.98
6453;BME280;3259;51.080;13.712;2023-05-08T00:34:05;101203.03;;;25.24;36.42
6453;BME280;3259;51.080;13.712;2023-05-08T00:36:55;101193.66;;;25.28;36.25
6453;BME280;3259;51.080;13.712;2023-05-08T00:39:45;101197.97;;;25.29;36.34
6453;BME280;3259;51.080;13.712;2023-05-08T00:42:34;101196.97;;;25.30;36.24
6453;BME280;3259;51.080;13.712;2023-05-08T00:45:22;101191.19;;;25.26;36.12
6453;BME280;3259;51.080;13.712;2023-05-08T00:48:12;101190.97;;;25.28;36.11
6453;BME280;3259;51.080;13.712;2023-05-08T00:51:02;101197.34;;;25.19;36.24
6453;BME280;3259;51.080;13.712;2023-05-08T00:53:52;101197.53;;;25.17;36.63
6453;BME280;3259;51.080;13.712;2023-05-08T00:56:42;101200.38;;;25.16;36.33
6453;BME280;3259;51.080;13.712;2023-05-08T00:59:32;101198.72;;;25.15;36.26
6453;BME280;3259;51.080;13.712;2023-05-08T01:02:22;101197.06;;;25.14;36.54
6453;BME280;3259;51.080;13.712;2023-05-08T01:05:12;101198.34;;;25.18;36.07
6453;BME280;3259;51.080;13.712;2023-05-08T01:08:00;101195.88;;;25.16;36.26
6453;BME280;3259;51.080;13.712;2023-05-08T01:10:57;101195.69;;;25.18;36.04
6453;BME280;3259;51.080;13.712;2023-05-08T01:13:58;101203.41;;;25.21;36.21
6453;BME280;3259;51.080;13.712;2023-05-08T01:16:57;101193.03;;;25.18;36.21
6453;BME280;3259;51.080;13.712;2023-05-08T01:19:59;101197.91;;;25.14;36.39
6453;BME280;3259;51.080;13.712;2023-05-08T01:23:07;101202.69;;;25.19;36.05
6453;BME280;3259;51.080;13.712;2023-05-08T01:30:18;101202.41;;;25.14;36.22
6453;BME280;3259;51.080;13.712;2023-05-08T01:33:21;101198.72;;;25.15;36.16
6453;BME280;3259;51.080;13.712;2023-05-08T01:36:24;101213.44;;;25.11;36.04
6453;BME280;3259;51.080;13.712;2023-05-08T01:39:19;101216.13;;;25.11;36.24
6453;BME280;3259;51.080;13.712;2023-05-08T01:42:15;101219.97;;;25.08;36.26
6453;BME280;3259;51.080;13.712;2023-05-08T01:45:17;101218.78;;;25.11;35.87
6453;BME280;3259;51.080;13.712;2023-05-08T01:48:08;101210.94;;;25.09;36.29
6453;BME280;3259;51.080;13.712;2023-05-08T01:51:04;101210.94;;;25.09;35.91
6453;BME280;3259;51.080;13.712;2023-05-08T01:53:57;101210.13;;;25.09;36.26
6453;BME280;3259;51.080;13.712;2023-05-08T01:56:49;101208.81;;;25.05;35.98
6453;BME280;3259;51.080;13.712;2023-05-08T01:59:40;101212.44;;;25.12;35.87
6453;BME280;3259;51.080;13.712;2023-05-08T02:02:31;101205.81;;;25.08;36.04
6453;BME280;3259;51.080;13.712;2023-05-08T02:05:22;101206.97;;;25.05;36.26
6453;BME280;3259;51.080;13.712;2023-05-08T02:08:13;101204.44;;;25.12;35.95
6453;BME280;3259;51.080;13.712;2023-05-08T02:11:04;101203.13;;;25.08;36.06
6453;BME280;3259;51.080;13.712;2023-05-08T02:13:56;101206.78;;;25.07;36.08
6453;BME280;3259;51.080;13.712;2023-05-08T02:16:46;101212.13;;;25.07;36.14
6453;BME280;3259;51.080;13.712;2023-05-08T02:19:38;101212.13;;;25.07;36.15
6453;BME280;3259;51.080;13.712;2023-05-08T02:22:29;101216.16;;;25.03;36.33
6453;BME280;3259;51.080;13.712;2023-05-08T02:25:21;101221.34;;;25.04;36.16
6453;BME280;3259;51.080;13.712;2023-05-08T02:28:11;101216.78;;;25.13;35.96
6453;BME280;3259;51.080;13.712;2023-05-08T02:31:00;101218.78;;;25.11;35.92
6453;BME280;3259;51.080;13.712;2023-05-08T02:33:50;101218.66;;;25.04;35.82
6453;BME280;3259;51.080;13.712;2023-05-08T02:36:40;101224.00;;;25.04;36.07
6453;BME280;3259;51.080;13.712;2023-05-08T02:39:30;101223.16;;;25.04;36.16
6453;BME280;3259;51.080;13.712;2023-05-08T02:42:22;101223.34;;;25.02;36.32
6453;BME280;3259;51.080;13.712;2023-05-08T02:45:11;101223.81;;;25.06;36.14
6453;BME280;3259;51.080;13.712;2023-05-08T02:48:09;101232.00;;;25.04;36.18
6453;BME280;3259;51.080;13.712;2023-05-08T02:51:06;101223.16;;;25.04;35.86
6453;BME280;3259;51.080;13.712;2023-05-08T02:54:03;101221.88;;;25.00;35.93
6453;BME280;3259;51.080;13.712;2023-05-08T02:56:57;101223.53;;;25.01;36.12
6453;BME280;3259;51.080;13.712;2023-05-08T02:59:55;101229.34;;;25.04;36.17
6453;BME280;3259;51.080;13.712;2023-05-08T03:02:48;101225.53;;;24.99;35.83
6453;BME280;3259;51.080;13.712;2023-05-08T03:05:42;101232.84;;;25.05;36.06
6453;BME280;3259;51.080;13.712;2023-05-08T03:08:36;101228.88;;;25.01;36.17
6453;BME280;3259;51.080;13.712;2023-05-08T03:11:28;101234.19;;;25.01;35.93
6453;BME280;3259;51.080;13.712;2023-05-08T03:14:23;101244.88;;;25.01;36.18
6453;BME280;3259;51.080;13.712;2023-05-08T03:17:16;101231.69;;;24.99;35.95
6453;BME280;3259;51.080;13.712;2023-05-08T03:20:08;101225.53;;;24.99;36.10
6453;BME280;3259;51.080;13.712;2023-05-08T03:23:01;101231.53;;;25.01;35.92
6453;BME280;3259;51.080;13.712;2023-05-08T03:25:51;101229.22;;;24.98;35.90
6453;BME280;3259;51.080;13.712;2023-05-08T03:28:41;101232.91;;;24.97;36.06
6453;BME280;3259;51.080;13.712;2023-05-08T03:31:31;101223.41;;;24.94;35.88
6453;BME280;3259;51.080;13.712;2023-05-08T03:34:22;101225.53;;;24.99;36.26
6453;BME280;3259;51.080;13.712;2023-05-08T03:37:12;101224.53;;;25.00;35.82
6453;BME280;3259;51.080;13.712;2023-05-08T03:40:00;101233.19;;;25.02;35.80
6453;BME280;3259;51.080;13.712;2023-05-08T03:42:50;101237.88;;;25.00;35.89
6453;BME280;3259;51.080;13.712;2023-05-08T03:45:39;101235.72;;;24.95;35.83
6453;BME280;3259;51.080;13.712;2023-05-08T03:48:29;101237.41;;;24.96;35.83
6453;BME280;3259;51.080;13.712;2023-05-08T03:51:21;101234.56;;;24.98;36.04
6453;BME280;3259;51.080;13.712;2023-05-08T03:54:10;101234.56;;;24.98;35.65
6453;BME280;3259;51.080;13.712;2023-05-08T03:56:59;101236.91;;;24.93;36.06
6453;BME280;3259;51.080;13.712;2023-05-08T03:59:51;101237.56;;;24.95;35.93
6453;BME280;3259;51.080;13.712;2023-05-08T04:02:46;101238.88;;;24.99;35.65
6453;BME280;3259;51.080;13.712;2023-05-08T04:05:45;101241.84;;;25.04;35.70
6453;BME280;3259;51.080;13.712;2023-05-08T04:08:41;101242.50;;;25.06;35.47
6453;BME280;3259;51.080;13.712;2023-05-08T04:11:40;101240.38;;;25.01;35.73
6453;BME280;3259;51.080;13.712;2023-05-08T04:14:34;101246.19;;;25.05;35.88
6453;BME280;3259;51.080;13.712;2023-05-08T04:17:33;101243.19;;;25.08;35.73
6453;BME280;3259;51.080;13.712;2023-05-08T04:20:26;101250.31;;;25.15;35.41
6453;BME280;3259;51.080;13.712;2023-05-08T04:23:19;101257.81;;;25.12;35.52
6453;BME280;3259;51.080;13.712;2023-05-08T04:26:13;101251.19;;;25.08;34.90
6453;BME280;3259;51.080;13.712;2023-05-08T04:29:03;101253.19;;;25.06;34.89
6453;BME280;3259;51.080;13.712;2023-05-08T04:31:53;101254.84;;;25.07;34.97
6453;BME280;3259;51.080;13.712;2023-05-08T04:34:43;101262.56;;;25.02;34.65
6453;BME280;3259;51.080;13.712;2023-05-08T04:37:35;101265.25;;;24.94;34.61
6453;BME280;3259;51.080;13.712;2023-05-08T04:40:24;101261.25;;;24.98;34.93
6453;BME280;3259;51.080;13.712;2023-05-08T04:43:14;101273.59;;;24.99;34.76
6453;BME280;3259;51.080;13.712;2023-05-08T04:46:04;101269.56;;;25.03;34.55
6453;BME280;3259;51.080;13.712;2023-05-08T04:48:53;101272.59;;;25.00;34.57
6453;BME280;3259;51.080;13.712;2023-05-08T04:51:42;101280.09;;;24.96;34.64
6453;BME280;3259;51.080;13.712;2023-05-08T04:54:31;101282.59;;;24.98;34.15
6453;BME280;3259;51.080;13.712;2023-05-08T04:57:19;101282.47;;;24.91;34.25
6453;BME280;3259;51.080;13.712;2023-05-08T05:00:11;101279.81;;;24.91;34.39
6453;BME280;3259;51.080;13.712;2023-05-08T05:03:00;101287.47;;;24.94;34.35
6453;BME280;3259;51.080;13.712;2023-05-08T05:05:56;101284.63;;;24.96;34.24
6453;BME280;3259;51.080;13.712;2023-05-08T05:08:45;101286.63;;;24.94;34.08
6453;BME280;3259;51.080;13.712;2023-05-08T05:11:34;101282.41;;;24.99;33.88
6453;BME280;3259;51.080;13.712;2023-05-08T05:14:23;101284.47;;;24.89;34.39
6453;BME280;3259;51.080;13.712;2023-05-08T05:17:12;101293.03;;;24.85;34.08
6453;BME280;3259;51.080;13.712;2023-05-08T05:20:02;101286.97;;;24.91;33.85
6453;BME280;3259;51.080;13.712;2023-05-08T05:22:51;101287.31;;;24.88;34.15
6453;BME280;3259;51.080;13.712;2023-05-08T05:25:40;101286.16;;;24.90;34.25
6453;BME280;3259;51.080;13.712;2023-05-08T05:28:29;101281.28;;;24.94;34.16
6453;BME280;3259;51.080;13.712;2023-05-08T05:31:18;101287.59;;;25.01;34.33
6453;BME280;3259;51.080;13.712;2023-05-08T05:34:08;101285.81;;;24.93;34.01
6453;BME280;3259;51.080;13.712;2023-05-08T05:36:58;101290.66;;;24.90;33.87
6453;BME280;3259;51.080;13.712;2023-05-08T05:39:47;101289.50;;;24.84;34.16
6453;BME280;3259;51.080;13.712;2023-05-08T05:42:36;101291.69;;;24.81;33.97
6453;BME280;3259;51.080;13.712;2023-05-08T05:45:25;101296.69;;;24.84;33.91
6453;BME280;3259;51.080;13.712;2023-05-08T05:48:14;101286.47;;;24.87;33.60
6453;BME280;3259;51.080;13.712;2023-05-08T05:51:04;101294.50;;;24.87;33.64
6453;BME280;3259;51.080;13.712;2023-05-08T05:53:53;101288.63;;;24.92;33.10
6453;BME280;3259;51.080;13.712;2023-05-08T05:56:43;101293.28;;;24.98;32.97
6453;BME280;3259;51.080;13.712;2023-05-08T05:59:31;101297.28;;;24.94;32.88
6453;BME280;3259;51.080;13.712;2023-05-08T06:02:20;101308.81;;;24.94;32.68
6453;BME280;3259;51.080;13.712;2023-05-08T06:05:09;101295.97;;;24.90;32.91
6453;BME280;3259;51.080;13.712;2023-05-08T06:07:59;101289.00;;;24.89;32.90
6453;BME280;3259;51.080;13.712;2023-05-08T06:10:49;101298.50;;;24.91;32.60
6453;BME280;3259;51.080;13.712;2023-05-08T06:13:38;101303.81;;;24.91;32.22
6453;BME280;3259;51.080;13.712;2023-05-08T06:16:28;101293.69;;;24.79;32.63
6453;BME280;3259;51.080;13.712;2023-05-08T06:19:18;101296.34;;;24.87;32.65
6453;BME280;3259;51.080;13.712;2023-05-08T06:22:06;101303.50;;;24.86;32.36
6453;BME280;3259;51.080;13.712;2023-05-08T06:24:57;101301.19;;;24.83;32.49
6453;BME280;3259;51.080;13.712;2023-05-08T06:27:45;101304.03;;;24.82;32.83
6453;BME280;3259;51.080;13.712;2023-05-08T06:30:34;101294.69;;;24.86;32.75
6453;BME280;3259;51.080;13.712;2023-05-08T06:33:23;101305.34;;;24.86;32.47
6453;BME280;3259;51.080;13.712;2023-05-08T06:36:13;101307.38;;;24.84;32.34
6453;BME280;3259;51.080;13.712;2023-05-08T06:39:03;101303.19;;;24.81;32.30
6453;BME280;3259;51.080;13.712;2023-05-08T06:41:53;101310.69;;;24.86;32.16
6453;BME280;3259;51.080;13.712;2023-05-08T06:44:42;101300.84;;;24.86;32.18
6453;BME280;3259;51.080;13.712;2023-05-08T06:47:31;101305.34;;;24.86;32.47
6453;BME280;3259;51.080;13.712;2023-05-08T06:50:20;101307.03;;;24.87;32.25
6453;BME280;3259;51.080;13.712;2023-05-08T06:53:09;101307.38;;;24.84;32.04
6453;BME280;3259;51.080;13.712;2023-05-08T06:55:58;101307.03;;;24.87;32.12
6453;BME280;3259;51.080;13.712;2023-05-08T06:58:48;101303.69;;;24.85;32.17
6453;BME280;3259;51.080;13.712;2023-05-08T07:01:53;101292.66;;;24.88;31.99
6453;BME280;3259;51.080;13.712;2023-05-08T07:04:42;101304.03;;;24.82;32.15
6453;BME280;3259;51.080;13.712;2023-05-08T07:07:32;101294.69;;;24.86;31.86
6453;BME280;3259;51.080;13.712;2023-05-08T07:10:22;101310.34;;;24.89;32.13
6453;BME280;3259;51.080;13.712;2023-05-08T07:13:15;101304.03;;;24.82;31.44
6453;BME280;3259;51.080;13.712;2023-05-08T07:16:09;101305.69;;;24.83;31.85
6453;BME280;3259;51.080;13.712;2023-05-08T07:18:58;101305.34;;;24.86;31.71
6453;BME280;3259;51.080;13.712;2023-05-08T07:21:47;101301.03;;;24.85;31.77
6453;BME280;3259;51.080;13.712;2023-05-08T07:24:35;101308.03;;;24.86;31.46
6453;BME280;3259;51.080;13.712;2023-05-08T07:27:24;101303.34;;;24.88;31.62
6453;BME280;3259;51.080;13.712;2023-05-08T07:30:13;101300.03;;;24.86;31.65
6453;BME280;3259;51.080;13.712;2023-05-08T07:33:03;101305.81;;;24.89;31.64
6453;BME280;3259;51.080;13.712;2023-05-08T07:35:52;101298.13;;;24.94;31.14
6453;BME280;3259;51.080;13.712;2023-05-08T07:38:41;101298.81;;;24.88;31.24
6453;BME280;3259;51.080;13.712;2023-05-08T07:41:30;101299.50;;;24.90;31.37
6453;BME280;3259;51.080;13.712;2023-05-08T07:44:21;101298.50;;;24.91;31.74
6453;BME280;3259;51.080;13.712;2023-05-08T07:47:10;101303.13;;;24.97;31.75
6453;BME280;3259;51.080;13.712;2023-05-08T07:50:01;101312.25;;;25.03;31.19
6453;BME280;3259;51.080;13.712;2023-05-08T07:52:50;101291.56;;;25.05;30.91
6453;BME280;3259;51.080;13.712;2023-05-08T07:55:39;101283.09;;;25.01;31.27
6453;BME280;3259;51.080;13.712;2023-05-08T07:58:29;101292.56;;;25.04;31.01
6453;BME280;3259;51.080;13.712;2023-05-08T08:01:20;101288.88;;;25.05;30.97
6453;BME280;3259;51.080;13.712;2023-05-08T08:04:09;101296.09;;;25.04;30.83
6453;BME280;3259;51.080;13.712;2023-05-08T08:07:02;101288.72;;;25.06;31.54
6453;BME280;3259;51.080;13.712;2023-05-08T08:09:53;101282.03;;;25.10;31.53
6453;BME280;3259;51.080;13.712;2023-05-08T08:12:42;101288.56;;;25.08;31.83
6453;BME280;3259;51.080;13.712;2023-05-08T08:15:31;101286.53;;;25.10;31.81
6453;BME280;3259;51.080;13.712;2023-05-08T08:18:20;101293.19;;;25.14;31.73
6453;BME280;3259;51.080;13.712;2023-05-08T08:21:09;101287.69;;;25.15;31.98
6453;BME280;3259;51.080;13.712;2023-05-08T08:23:59;101291.00;;;25.25;31.59
6453;BME280;3259;51.080;13.712;2023-05-08T08:26:48;101279.81;;;25.22;32.60
6453;BME280;3259;51.080;13.712;2023-05-08T08:29:37;101292.81;;;25.17;32.45
6453;BME280;3259;51.080;13.712;2023-05-08T08:32:26;101285.47;;;25.19;31.72
6453;BME280;3259;51.080;13.712;2023-05-08T08:35:15;101274.78;;;25.19;30.97
6453;BME280;3259;51.080;13.712;2023-05-08T08:38:04;101285.16;;;25.22;30.91
6453;BME280;3259;51.080;13.712;2023-05-08T08:40:54;101285.47;;;25.19;31.10
6453;BME280;3259;51.080;13.712;2023-05-08T08:43:45;101285.16;;;25.22;31.00
6453;BME280;3259;51.080;13.712;2023-05-08T08:46:34;101283.97;;;25.24;30.98
6453;BME280;3259;51.080;13.712;2023-05-08T08:49:29;101278.31;;;25.19;30.87
6453;BME280;3259;51.080;13.712;2023-05-08T08:52:24;101289.31;;;25.24;30.43
6453;BME280;3259;51.080;13.712;2023-05-08T08:55:15;101281.84;;;25.20;30.39
6453;BME280;3259;51.080;13.712;2023-05-08T08:58:13;101274.78;;;25.19;30.22
6453;BME280;3259;51.080;13.712;2023-05-08T09:01:04;101280.97;;;25.19;30.15
6453;BME280;3259;51.080;13.712;2023-05-08T09:03:56;101269.16;;;25.22;30.47
6453;BME280;3259;51.080;13.712;2023-05-08T09:06:45;101274.50;;;25.22;30.19
6453;BME280;3259;51.080;13.712;2023-05-08T09:09:39;101273.13;;;25.18;30.05
6453;BME280;3259;51.080;13.712;2023-05-08T09:12:30;101275.31;;;25.22;30.60
6453;BME280;3259;51.080;13.712;2023-05-08T09:15:20;101269.31;;;25.20;30.86
6453;BME280;3259;51.080;13.712;2023-05-08T09:18:08;101277.16;;;25.22;30.43
6453;BME280;3259;51.080;13.712;2023-05-08T09:20:57;101270.44;;;25.26;30.66
6453;BME280;3259;51.080;13.712;2023-05-08T09:23:54;101258.59;;;25.28;30.45
6453;BME280;3259;51.080;13.712;2023-05-08T09:26:45;101263.56;;;25.31;30.35
6453;BME280;3259;51.080;13.712;2023-05-08T09:29:33;101271.06;;;25.36;30.30
6453;BME280;3259;51.080;13.712;2023-05-08T09:32:23;101262.72;;;25.31;30.09
6453;BME280;3259;51.080;13.712;2023-05-08T09:35:12;101253.38;;;25.35;29.92
6453;BME280;3259;51.080;13.712;2023-05-08T09:38:01;101266.06;;;25.33;30.34
6453;BME280;3259;51.080;13.712;2023-05-08T09:41:04;101266.34;;;25.38;29.78
6453;BME280;3259;51.080;13.712;2023-05-08T09:44:02;101252.00;;;25.39;29.88
6453;BME280;3259;51.080;13.712;2023-05-08T09:46:52;101243.97;;;25.39;30.31
6453;BME280;3259;51.080;13.712;2023-05-08T09:50:00;101244.56;;;25.49;30.20
6453;BME280;3259;51.080;13.712;2023-05-08T09:52:49;101249.44;;;25.45;30.08
6453;BME280;3259;51.080;13.712;2023-05-08T09:55:45;101247.41;;;25.47;30.18
6453;BME280;3259;51.080;13.712;2023-05-08T09:58:37;101248.09;;;25.64;30.42
6453;BME280;3259;51.080;13.712;2023-05-08T10:01:29;101241.09;;;25.63;30.84
6453;BME280;3259;51.080;13.712;2023-05-08T10:04:29;101235.16;;;25.53;30.46
6453;BME280;3259;51.080;13.712;2023-05-08T10:07:27;101239.06;;;25.65;30.69
6453;BME280;3259;51.080;13.712;2023-05-08T10:10:22;101239.06;;;25.65;30.74
6453;BME280;3259;51.080;13.712;2023-05-08T10:13:13;101236.78;;;25.62;29.93
6453;BME280;3259;51.080;13.712;2023-05-08T10:16:02;101248.47;;;25.61;30.48
6453;BME280;3259;51.080;13.712;2023-05-08T10:18:58;101242.97;;;25.62;30.74
6453;BME280;3259;51.080;13.712;2023-05-08T10:21:48;101241.94;;;25.63;30.77
6453;BME280;3259;51.080;13.712;2023-05-08T10:24:43;101231.38;;;25.70;30.90
6453;BME280;3259;51.080;13.712;2023-05-08T10:27:38;101245.81;;;25.61;31.55
6453;BME280;3259;51.080;13.712;2023-05-08T10:30:29;101232.06;;;25.64;31.49
6453;BME280;3259;51.080;13.712;2023-05-08T10:33:20;101230.78;;;25.60;31.44
6453;BME280;3259;51.080;13.712;2023-05-08T10:36:10;101236.41;;;25.65;31.24
6453;BME280;3259;51.080;13.712;2023-05-08T10:39:01;101219.34;;;25.66;31.53
6453;BME280;3259;51.080;13.712;2023-05-08T10:41:51;101216.91;;;25.79;31.59
6453;BME280;3259;51.080;13.712;2023-05-08T10:44:40;101214.00;;;25.66;31.31
6453;BME280;3259;51.080;13.712;2023-05-08T10:47:35;101208.69;;;25.80;31.67
6453;BME280;3259;51.080;13.712;2023-05-08T10:50:41;101207.31;;;25.70;31.20
6453;BME280;3259;51.080;13.712;2023-05-08T10:53:38;101212.66;;;25.70;31.49
6453;BME280;3259;51.080;13.712;2023-05-08T10:56:27;101209.69;;;25.65;30.85
6453;BME280;3259;51.080;13.712;2023-05-08T10:59:18;101209.69;;;25.65;30.65
6453;BME280;3259;51.080;13.712;2023-05-08T11:02:08;101205.47;;;25.70;30.81
6453;BME280;3259;51.080;13.712;2023-05-08T11:05:15;101210.81;;;25.70;30.56
6453;BME280;3259;51.080;13.712;2023-05-08T11:08:13;101202.03;;;25.62;29.99
6453;BME280;3259;51.080;13.712;2023-05-08T11:11:04;101188.78;;;25.68;30.89
6453;BME280;3259;51.080;13.712;2023-05-08T11:14:08;101192.63;;;25.66;31.19
6453;BME280;3259;51.080;13.712;2023-05-08T11:17:09;101196.78;;;25.68;31.00
6453;BME280;3259;51.080;13.712;2023-05-08T11:19:59;101195.50;;;25.64;30.52
6453;BME280;3259;51.080;13.712;2023-05-08T11:22:49;101201.97;;;25.70;31.40
6453;BME280;3259;51.080;13.712;2023-05-08T11:25:41;101193.94;;;25.70;31.41
6453;BME280;3259;51.080;13.712;2023-05-08T11:28:31;101185.03;;;25.77;31.49
6453;BME280;3259;51.080;13.712;2023-05-08T11:31:20;101187.22;;;25.74;30.51
6453;BME280;3259;51.080;13.712;2023-05-08T11:37:33;101180.84;;;25.75;31.37
6453;BME280;3259;51.080;13.712;2023-05-08T11:40:45;101182.50;;;25.76;30.67
6453;BME280;3259;51.080;13.712;2023-05-08T11:44:17;101174.88;;;25.73;29.91
6453;BME280;3259;51.080;13.712;2023-05-08T11:47:07;101177.53;;;25.73;29.79
6453;BME280;3259;51.080;13.712;2023-05-08T11:49:58;101165.19;;;25.72;30.27
6453;BME280;3259;51.080;13.712;2023-05-08T11:52:50;101175.88;;;25.72;30.03
6453;BME280;3259;51.080;13.712;2023-05-08T11:55:40;101166.84;;;25.73;31.29
6453;BME280;3259;51.080;13.712;2023-05-08T11:58:29;101172.47;;;25.77;30.38
6453;BME280;3259;51.080;13.712;2023-05-08T12:01:20;101171.81;;;25.76;30.19
6453;BME280;3259;51.080;13.712;2023-05-08T12:04:10;101169.78;;;25.77;30.08
6453;BME280;3259;51.080;13.712;2023-05-08T12:06:59;101169.44;;;25.81;30.57
6453;BME280;3259;51.080;13.712;2023-05-08T12:09:48;101161.13;;;25.76;30.19
6453;BME280;3259;51.080;13.712;2023-05-08T12:12:37;101162.44;;;25.80;30.93
6453;BME280;3259;51.080;13.712;2023-05-08T12:15:26;101157.44;;;25.77;30.63
6453;BME280;3259;51.080;13.712;2023-05-08T12:18:16;101158.75;;;25.81;30.49
6453;BME280;3259;51.080;13.712;2023-05-08T12:21:05;101158.38;;;25.83;30.31
6453;BME280;3259;51.080;13.712;2023-05-08T12:23:54;101149.72;;;25.82;30.40
6453;BME280;3259;51.080;13.712;2023-05-08T12:26:43;101142.34;;;25.83;30.55
6453;BME280;3259;51.080;13.712;2023-05-08T12:29:34;101142.84;;;25.87;30.28
6453;BME280;3259;51.080;13.712;2023-05-08T12:32:24;101141.19;;;25.86;30.01
6453;BME280;3259;51.080;13.712;2023-05-08T12:35:16;101145.69;;;25.86;29.55
6453;BME280;3259;51.080;13.712;2023-05-08T12:38:06;101152.56;;;25.80;29.58
6453;BME280;3259;51.080;13.712;2023-05-08T12:40:56;101137.59;;;25.93;29.71
6453;BME280;3259;51.080;13.712;2023-05-08T12:43:46;101142.56;;;25.96;30.03
6453;BME280;3259;51.080;13.712;2023-05-08T12:46:35;101141.28;;;25.92;29.30
6453;BME280;3259;51.080;13.712;2023-05-08T12:49:27;101138.41;;;25.94;29.26
6453;BME280;3259;51.080;13.712;2023-05-08T12:52:18;101135.56;;;25.95;29.38
6453;BME280;3259;51.080;13.712;2023-05-08T12:55:22;101135.56;;;25.95;30.14
6453;BME280;3259;51.080;13.712;2023-05-08T12:58:12;101140.91;;;25.95;29.75
6453;BME280;3259;51.080;13.712;2023-05-08T13:01:09;101137.13;;;26.04;29.56
6453;BME280;3259;51.080;13.712;2023-05-08T13:03:59;101138.69;;;25.99;30.59
6453;BME280;3259;51.080;13.712;2023-05-08T13:06:55;101127.97;;;26.13;30.55
6453;BME280;3259;51.080;13.712;2023-05-08T13:09:58;101130.75;;;26.05;30.30
6453;BME280;3259;51.080;13.712;2023-05-08T13:12:49;101126.44;;;26.04;29.94
6453;BME280;3259;51.080;13.712;2023-05-08T13:15:38;101130.31;;;26.02;30.21
6453;BME280;3259;51.080;13.712;2023-05-08T13:18:26;101129.47;;;26.01;29.87
6453;BME280;3259;51.080;13.712;2023-05-08T13:21:15;101117.00;;;26.08;30.26
6453;BME280;3259;51.080;13.712;2023-05-08T13:24:04;101106.22;;;26.16;30.24
6453;BME280;3259;51.080;13.712;2023-05-08T13:26:55;101107.13;;;26.23;30.93
6453;BME280;3259;51.080;13.712;2023-05-08T13:29:44;101098.06;;;26.24;31.67
6453;BME280;3259;51.080;13.712;2023-05-08T13:32:32;101113.00;;;26.33;30.95
6453;BME280;3259;51.080;13.712;2023-05-08T13:35:22;101099.38;;;26.28;31.10
6453;BME280;3259;51.080;13.712;2023-05-08T13:38:11;101095.41;;;26.24;30.58
6453;BME280;3259;51.080;13.712;2023-05-08T13:40:59;101094.75;;;26.22;29.80
6453;BME280;3259;51.080;13.712;2023-05-08T13:43:49;101098.84;;;26.18;30.24
6453;BME280;3259;51.080;13.712;2023-05-08T13:46:38;101096.06;;;26.26;30.17
6453;BME280;3259;51.080;13.712;2023-05-08T13:49:27;101084.22;;;26.35;29.88
6453;BME280;3259;51.080;13.712;2023-05-08T13:52:16;101090.72;;;26.26;30.02
6453;BME280;3259;51.080;13.712;2023-05-08T13:55:06;101092.38;;;26.27;29.84
6453;BME280;3259;51.080;13.712;2023-05-08T13:57:56;101075.56;;;26.33;29.57
6453;BME280;3259;51.080;13.712;2023-05-08T14:00:46;101085.88;;;26.36;30.08
6453;BME280;3259;51.080;13.712;2023-05-08T14:03:36;101083.09;;;26.44;29.83
6453;BME280;3259;51.080;13.712;2023-05-08T14:06:24;101093.34;;;26.41;29.95
6453;BME280;3259;51.080;13.712;2023-05-08T14:09:13;101084.22;;;26.35;29.84
6453;BME280;3259;51.080;13.712;2023-05-08T14:12:02;101079.25;;;26.32;29.66
6453;BME280;3259;51.080;13.712;2023-05-08T14:14:53;101086.63;;;26.30;29.93
6453;BME280;3259;51.080;13.712;2023-05-08T14:17:43;101074.91;;;26.31;29.80
6453;BME280;3259;51.080;13.712;2023-05-08T14:20:34;101075.16;;;26.36;29.63
6453;BME280;3259;51.080;13.712;2023-05-08T14:23:23;101076.66;;;26.39;29.87
6453;BME280;3259;51.080;13.712;2023-05-08T14:26:12;101074.16;;;26.37;29.76
6453;BME280;3259;51.080;13.712;2023-05-08T14:29:00;101069.06;;;26.42;29.50
6453;BME280;3259;51.080;13.712;2023-05-08T14:31:49;101067.41;;;26.41;29.59
6453;BME280;3259;51.080;13.712;2023-05-08T14:34:39;101063.44;;;26.37;29.66
6453;BME280;3259;51.080;13.712;2023-05-08T14:37:30;101061.16;;;26.34;29.42
6453;BME280;3259;51.080;13.712;2023-05-08T14:40:19;101071.41;;;26.31;29.32
6453;BME280;3259;51.080;13.712;2023-05-08T14:43:10;101052.94;;;26.36;29.38
6453;BME280;3259;51.080;13.712;2023-05-08T14:45:59;101058.31;;;26.36;29.39
6453;BME280;3259;51.080;13.712;2023-05-08T14:48:48;101053.34;;;26.33;29.43
6453;BME280;3259;51.080;13.712;2023-05-08T14:51:38;101056.72;;;26.41;29.25
6453;BME280;3259;51.080;13.712;2023-05-08T14:54:30;101062.81;;;26.35;29.04
6453;BME280;3259;51.080;13.712;2023-05-08T14:57:19;101063.84;;;26.34;29.12
6453;BME280;3259;51.080;13.712;2023-05-08T15:00:11;101056.72;;;26.41;28.98
6453;BME280;3259;51.080;13.712;2023-05-08T15:03:00;101064.09;;;26.39;29.15
6453;BME280;3259;51.080;13.712;2023-05-08T15:05:49;101067.31;;;26.49;28.96
6453;BME280;3259;51.080;13.712;2023-05-08T15:08:39;101054.78;;;26.50;29.08
6453;BME280;3259;51.080;13.712;2023-05-08T15:11:28;101059.63;;;26.46;28.86
6453;BME280;3259;51.080;13.712;2023-05-08T15:14:17;101050.59;;;26.47;28.93